sensor_id;sensor_type;location;lat;lon;timestamp;temperature;humidity
59505;DHT22;45321;53.200;5.814;2022-08-19T00:01:44;19.10;76.00
59505;DHT22;45321;53.200;5.814;2022-08-19T00:04:13;19.00;75.80
59505;DHT22;45321;53.200;5.814;2022-08-19T00:06:41;19.00;76.10
59505;DHT22;45321;53.200;5.814;2022-08-19T00:09:09;19.00;75.80
59505;DHT22;45321;53.200;5.814;2022-08-19T00:11:36;19.00;76.10
59505;DHT22;45321;53.200;5.814;2022-08-19T00:14:06;19.00;76.20
59505;DHT22;45321;53.200;5.814;2022-08-19T00:16:32;19.00;76.00
59505;DHT22;45321;53.200;5.814;2022-08-19T00:18:58;18.90;76.20
59505;DHT22;45321;53.200;5.814;2022-08-19T00:21:25;18.80;76.30
59505;DHT22;45321;53.200;5.814;2022-08-19T00:23:53;18.80;76.20
59505;DHT22;45321;53.200;5.814;2022-08-19T00:26:19;18.80;76.50
59505;DHT22;45321;53.200;5.814;2022-08-19T00:28:44;18.80;76.20
59505;DHT22;45321;53.200;5.814;2022-08-19T00:31:10;18.80;76.40
59505;DHT22;45321;53.200;5.814;2022-08-19T00:33:36;18.80;76.40
59505;DHT22;45321;53.200;5.814;2022-08-19T00:36:05;18.70;76.50
59505;DHT22;45321;53.200;5.814;2022-08-19T00:38:32;18.70;76.40
59505;DHT22;45321;53.200;5.814;2022-08-19T00:40:58;18.70;76.60
59505;DHT22;45321;53.200;5.814;2022-08-19T00:43:26;18.70;76.90
59505;DHT22;45321;53.200;5.814;2022-08-19T00:45:53;18.70;76.90
59505;DHT22;45321;53.200;5.814;2022-08-19T00:48:20;18.70;76.70
59505;DHT22;45321;53.200;5.814;2022-08-19T00:50:48;18.70;76.80
59505;DHT22;45321;53.200;5.814;2022-08-19T00:53:19;18.70;76.90
59505;DHT22;45321;53.200;5.814;2022-08-19T00:55:46;18.60;77.00
59505;DHT22;45321;53.200;5.814;2022-08-19T00:58:15;18.60;77.10
59505;DHT22;45321;53.200;5.814;2022-08-19T01:00:42;18.60;77.20
59505;DHT22;45321;53.200;5.814;2022-08-19T01:03:11;18.60;77.40
59505;DHT22;45321;53.200;5.814;2022-08-19T01:05:39;18.60;77.40
59505;DHT22;45321;53.200;5.814;2022-08-19T01:08:07;18.60;77.50
59505;DHT22;45321;53.200;5.814;2022-08-19T01:10:40;18.50;77.60
59505;DHT22;45321;53.200;5.814;2022-08-19T01:13:07;18.50;77.60
59505;DHT22;45321;53.200;5.814;2022-08-19T01:15:43;18.50;77.80
59505;DHT22;45321;53.200;5.814;2022-08-19T01:18:13;18.40;77.80
59505;DHT22;45321;53.200;5.814;2022-08-19T01:20:40;18.40;77.80
59505;DHT22;45321;53.200;5.814;2022-08-19T01:23:06;18.40;78.00
59505;DHT22;45321;53.200;5.814;2022-08-19T01:25:43;18.40;78.00
59505;DHT22;45321;53.200;5.814;2022-08-19T01:28:19;18.40;78.20
59505;DHT22;45321;53.200;5.814;2022-08-19T01:30:46;18.40;78.30
59505;DHT22;45321;53.200;5.814;2022-08-19T01:33:12;18.40;78.00
59505;DHT22;45321;53.200;5.814;2022-08-19T01:35:38;18.40;78.10
59505;DHT22;45321;53.200;5.814;2022-08-19T01:38:06;18.40;78.00
59505;DHT22;45321;53.200;5.814;2022-08-19T01:40:37;18.30;77.90
59505;DHT22;45321;53.200;5.814;2022-08-19T01:43:04;18.30;78.40
59505;DHT22;45321;53.200;5.814;2022-08-19T01:45:31;18.30;78.30
59505;DHT22;45321;53.200;5.814;2022-08-19T01:47:59;18.30;78.50
59505;DHT22;45321;53.200;5.814;2022-08-19T01:50:25;18.30;78.50
59505;DHT22;45321;53.200;5.814;2022-08-19T01:52:51;18.30;78.50
59505;DHT22;45321;53.200;5.814;2022-08-19T01:55:20;18.30;78.60
59505;DHT22;45321;53.200;5.814;2022-08-19T01:57:53;18.20;78.80
59505;DHT22;45321;53.200;5.814;2022-08-19T02:00:24;18.20;78.50
59505;DHT22;45321;53.200;5.814;2022-08-19T02:02:50;18.20;78.80
59505;DHT22;45321;53.200;5.814;2022-08-19T02:05:16;18.20;79.10
59505;DHT22;45321;53.200;5.814;2022-08-19T02:07:43;18.20;79.00
59505;DHT22;45321;53.200;5.814;2022-08-19T02:10:16;18.20;79.20
59505;DHT22;45321;53.200;5.814;2022-08-19T02:12:42;18.20;79.10
59505;DHT22;45321;53.200;5.814;2022-08-19T02:15:09;18.20;79.10
59505;DHT22;45321;53.200;5.814;2022-08-19T02:17:35;18.20;79.10
59505;DHT22;45321;53.200;5.814;2022-08-19T02:20:04;18.20;78.70
59505;DHT22;45321;53.200;5.814;2022-08-19T02:22:32;18.10;78.90
59505;DHT22;45321;53.200;5.814;2022-08-19T02:24:58;18.00;79.10
59505;DHT22;45321;53.200;5.814;2022-08-19T02:27:24;18.00;79.30
59505;DHT22;45321;53.200;5.814;2022-08-19T02:29:53;18.00;79.30
59505;DHT22;45321;53.200;5.814;2022-08-19T02:32:19;18.00;79.50
59505;DHT22;45321;53.200;5.814;2022-08-19T02:34:46;18.00;79.40
59505;DHT22;45321;53.200;5.814;2022-08-19T02:37:12;18.00;79.50
59505;DHT22;45321;53.200;5.814;2022-08-19T02:39:57;17.90;79.50
59505;DHT22;45321;53.200;5.814;2022-08-19T02:42:23;18.00;79.40
59505;DHT22;45321;53.200;5.814;2022-08-19T02:44:49;18.00;79.50
59505;DHT22;45321;53.200;5.814;2022-08-19T02:47:15;17.90;79.30
59505;DHT22;45321;53.200;5.814;2022-08-19T02:49:41;17.90;79.40
59505;DHT22;45321;53.200;5.814;2022-08-19T02:52:07;17.90;79.50
59505;DHT22;45321;53.200;5.814;2022-08-19T02:54:32;17.90;79.50
59505;DHT22;45321;53.200;5.814;2022-08-19T02:56:58;17.90;79.70
59505;DHT22;45321;53.200;5.814;2022-08-19T02:59:24;17.90;79.80
59505;DHT22;45321;53.200;5.814;2022-08-19T03:01:51;17.80;79.80
59505;DHT22;45321;53.200;5.814;2022-08-19T03:04:18;17.80;79.70
59505;DHT22;45321;53.200;5.814;2022-08-19T03:06:46;17.80;79.70
59505;DHT22;45321;53.200;5.814;2022-08-19T03:09:12;17.80;80.10
59505;DHT22;45321;53.200;5.814;2022-08-19T03:11:39;17.80;79.80
59505;DHT22;45321;53.200;5.814;2022-08-19T03:14:06;17.80;79.80
59505;DHT22;45321;53.200;5.814;2022-08-19T03:16:34;17.80;80.20
59505;DHT22;45321;53.200;5.814;2022-08-19T03:19:01;17.80;80.20
59505;DHT22;45321;53.200;5.814;2022-08-19T03:21:29;17.80;80.00
59505;DHT22;45321;53.200;5.814;2022-08-19T03:23:56;17.70;80.30
59505;DHT22;45321;53.200;5.814;2022-08-19T03:26:22;17.70;80.30
59505;DHT22;45321;53.200;5.814;2022-08-19T03:28:48;17.70;80.70
59505;DHT22;45321;53.200;5.814;2022-08-19T03:31:19;17.70;80.40
59505;DHT22;45321;53.200;5.814;2022-08-19T03:33:47;17.70;80.80
59505;DHT22;45321;53.200;5.814;2022-08-19T03:36:15;17.70;80.90
59505;DHT22;45321;53.200;5.814;2022-08-19T03:38:45;17.70;80.90
59505;DHT22;45321;53.200;5.814;2022-08-19T03:41:15;17.70;80.50
59505;DHT22;45321;53.200;5.814;2022-08-19T03:43:42;17.70;80.90
59505;DHT22;45321;53.200;5.814;2022-08-19T03:46:11;17.70;80.90
59505;DHT22;45321;53.200;5.814;2022-08-19T03:48:40;17.70;80.80
59505;DHT22;45321;53.200;5.814;2022-08-19T03:51:06;17.70;80.70
59505;DHT22;45321;53.200;5.814;2022-08-19T03:53:34;17.70;80.90
59505;DHT22;45321;53.200;5.814;2022-08-19T03:56:01;17.60;81.00
59505;DHT22;45321;53.200;5.814;2022-08-19T03:58:28;17.70;80.70
59505;DHT22;45321;53.200;5.814;2022-08-19T04:00:56;17.60;80.90
59505;DHT22;45321;53.200;5.814;2022-08-19T04:03:23;17.60;80.60
59505;DHT22;45321;53.200;5.814;2022-08-19T04:05:49;17.60;80.90
59505;DHT22;45321;53.200;5.814;2022-08-19T04:08:15;17.50;81.00
59505;DHT22;45321;53.200;5.814;2022-08-19T04:10:44;17.50;81.10
59505;DHT22;45321;53.200;5.814;2022-08-19T04:13:10;17.60;81.10
59505;DHT22;45321;53.200;5.814;2022-08-19T04:15:40;17.50;81.30
59505;DHT22;45321;53.200;5.814;2022-08-19T04:18:10;17.60;81.20
59505;DHT22;45321;53.200;5.814;2022-08-19T04:20:54;17.50;81.20
59505;DHT22;45321;53.200;5.814;2022-08-19T04:23:20;17.60;81.20
59505;DHT22;45321;53.200;5.814;2022-08-19T04:25:45;17.50;81.10
59505;DHT22;45321;53.200;5.814;2022-08-19T04:28:12;17.50;81.20
59505;DHT22;45321;53.200;5.814;2022-08-19T04:30:48;17.50;81.20
59505;DHT22;45321;53.200;5.814;2022-08-19T04:33:16;17.50;81.40
59505;DHT22;45321;53.200;5.814;2022-08-19T04:35:47;17.50;81.60
59505;DHT22;45321;53.200;5.814;2022-08-19T04:38:15;17.50;81.70
59505;DHT22;45321;53.200;5.814;2022-08-19T04:40:43;17.50;81.70
59505;DHT22;45321;53.200;5.814;2022-08-19T04:43:28;17.50;81.60
59505;DHT22;45321;53.200;5.814;2022-08-19T04:45:54;17.50;82.10
59505;DHT22;45321;53.200;5.814;2022-08-19T04:48:20;17.50;81.90
59505;DHT22;45321;53.200;5.814;2022-08-19T04:50:52;17.50;82.00
59505;DHT22;45321;53.200;5.814;2022-08-19T04:53:26;17.50;82.00
59505;DHT22;45321;53.200;5.814;2022-08-19T04:55:55;17.50;81.90
59505;DHT22;45321;53.200;5.814;2022-08-19T04:58:22;17.50;82.10
59505;DHT22;45321;53.200;5.814;2022-08-19T05:00:48;17.50;82.10
59505;DHT22;45321;53.200;5.814;2022-08-19T05:03:14;17.50;82.20
59505;DHT22;45321;53.200;5.814;2022-08-19T05:05:44;17.60;82.60
59505;DHT22;45321;53.200;5.814;2022-08-19T05:08:12;17.60;82.50
59505;DHT22;45321;53.200;5.814;2022-08-19T05:10:38;17.60;82.40
59505;DHT22;45321;53.200;5.814;2022-08-19T05:13:05;17.60;82.30
59505;DHT22;45321;53.200;5.814;2022-08-19T05:15:31;17.60;82.40
59505;DHT22;45321;53.200;5.814;2022-08-19T05:17:57;17.60;82.50
59505;DHT22;45321;53.200;5.814;2022-08-19T05:20:41;17.60;82.20
59505;DHT22;45321;53.200;5.814;2022-08-19T05:23:25;17.60;82.30
59505;DHT22;45321;53.200;5.814;2022-08-19T05:25:52;17.70;82.60
59505;DHT22;45321;53.200;5.814;2022-08-19T05:28:19;17.70;82.50
59505;DHT22;45321;53.200;5.814;2022-08-19T05:30:45;17.70;82.60
59505;DHT22;45321;53.200;5.814;2022-08-19T05:33:11;17.80;82.60
59505;DHT22;45321;53.200;5.814;2022-08-19T05:35:40;17.80;82.60
59505;DHT22;45321;53.200;5.814;2022-08-19T05:38:07;17.90;82.30
59505;DHT22;45321;53.200;5.814;2022-08-19T05:40:38;17.90;82.30
59505;DHT22;45321;53.200;5.814;2022-08-19T05:43:05;17.90;82.40
59505;DHT22;45321;53.200;5.814;2022-08-19T05:45:31;17.90;82.60
59505;DHT22;45321;53.200;5.814;2022-08-19T05:47:57;17.90;82.60
59505;DHT22;45321;53.200;5.814;2022-08-19T05:50:24;17.90;82.80
59505;DHT22;45321;53.200;5.814;2022-08-19T05:52:52;17.90;83.10
59505;DHT22;45321;53.200;5.814;2022-08-19T05:55:18;17.90;83.20
59505;DHT22;45321;53.200;5.814;2022-08-19T05:57:46;18.00;82.80
59505;DHT22;45321;53.200;5.814;2022-08-19T06:00:13;18.00;83.00
59505;DHT22;45321;53.200;5.814;2022-08-19T06:02:39;18.00;83.10
59505;DHT22;45321;53.200;5.814;2022-08-19T06:05:06;18.00;83.10
59505;DHT22;45321;53.200;5.814;2022-08-19T06:07:38;18.10;83.40
59505;DHT22;45321;53.200;5.814;2022-08-19T06:10:09;18.20;83.50
59505;DHT22;45321;53.200;5.814;2022-08-19T06:12:35;18.20;83.90
59505;DHT22;45321;53.200;5.814;2022-08-19T06:15:06;18.30;83.70
59505;DHT22;45321;53.200;5.814;2022-08-19T06:17:32;18.30;83.70
59505;DHT22;45321;53.200;5.814;2022-08-19T06:20:00;18.40;83.70
59505;DHT22;45321;53.200;5.814;2022-08-19T06:22:27;18.50;83.70
59505;DHT22;45321;53.200;5.814;2022-08-19T06:24:54;18.50;83.60
59505;DHT22;45321;53.200;5.814;2022-08-19T06:27:20;18.60;83.70
59505;DHT22;45321;53.200;5.814;2022-08-19T06:29:46;18.60;83.70
59505;DHT22;45321;53.200;5.814;2022-08-19T06:32:15;18.60;83.90
59505;DHT22;45321;53.200;5.814;2022-08-19T06:34:42;18.60;83.90
59505;DHT22;45321;53.200;5.814;2022-08-19T06:37:08;18.70;83.70
59505;DHT22;45321;53.200;5.814;2022-08-19T06:39:36;18.70;84.00
59505;DHT22;45321;53.200;5.814;2022-08-19T06:42:05;18.70;84.00
59505;DHT22;45321;53.200;5.814;2022-08-19T06:44:35;18.80;84.00
59505;DHT22;45321;53.200;5.814;2022-08-19T06:47:06;18.80;84.10
59505;DHT22;45321;53.200;5.814;2022-08-19T06:49:33;18.80;84.10
59505;DHT22;45321;53.200;5.814;2022-08-19T06:51:59;18.90;84.10
59505;DHT22;45321;53.200;5.814;2022-08-19T06:54:26;19.00;83.90
59505;DHT22;45321;53.200;5.814;2022-08-19T06:56:53;19.00;84.00
59505;DHT22;45321;53.200;5.814;2022-08-19T06:59:22;19.10;84.20
59505;DHT22;45321;53.200;5.814;2022-08-19T07:01:54;19.20;84.40
59505;DHT22;45321;53.200;5.814;2022-08-19T07:04:24;19.30;84.30
59505;DHT22;45321;53.200;5.814;2022-08-19T07:06:56;19.30;84.20
59505;DHT22;45321;53.200;5.814;2022-08-19T07:09:22;19.40;84.40
59505;DHT22;45321;53.200;5.814;2022-08-19T07:11:50;19.60;84.20
59505;DHT22;45321;53.200;5.814;2022-08-19T07:14:20;19.70;84.50
59505;DHT22;45321;53.200;5.814;2022-08-19T07:16:50;19.70;84.10
59505;DHT22;45321;53.200;5.814;2022-08-19T07:19:18;19.80;84.20
59505;DHT22;45321;53.200;5.814;2022-08-19T07:21:44;20.00;83.90
59505;DHT22;45321;53.200;5.814;2022-08-19T07:24:09;20.00;83.80
59505;DHT22;45321;53.200;5.814;2022-08-19T07:26:40;20.10;84.00
59505;DHT22;45321;53.200;5.814;2022-08-19T07:29:07;20.20;83.90
59505;DHT22;45321;53.200;5.814;2022-08-19T07:31:33;20.30;83.80
59505;DHT22;45321;53.200;5.814;2022-08-19T07:34:04;20.40;83.60
59505;DHT22;45321;53.200;5.814;2022-08-19T07:36:35;20.40;83.60
59505;DHT22;45321;53.200;5.814;2022-08-19T07:39:05;20.50;83.50
59505;DHT22;45321;53.200;5.814;2022-08-19T07:41:31;20.60;83.80
59505;DHT22;45321;53.200;5.814;2022-08-19T07:43:59;20.70;83.60
59505;DHT22;45321;53.200;5.814;2022-08-19T07:46:32;20.70;83.20
59505;DHT22;45321;53.200;5.814;2022-08-19T07:48:58;20.80;83.10
59505;DHT22;45321;53.200;5.814;2022-08-19T07:51:26;20.80;83.10
59505;DHT22;45321;53.200;5.814;2022-08-19T07:53:53;20.90;83.30
59505;DHT22;45321;53.200;5.814;2022-08-19T07:56:19;20.90;83.40
59505;DHT22;45321;53.200;5.814;2022-08-19T07:58:49;21.00;83.50
59505;DHT22;45321;53.200;5.814;2022-08-19T08:01:22;21.10;83.20
59505;DHT22;45321;53.200;5.814;2022-08-19T08:03:49;21.20;83.40
59505;DHT22;45321;53.200;5.814;2022-08-19T08:06:34;21.20;83.40
59505;DHT22;45321;53.200;5.814;2022-08-19T08:09:25;21.30;83.30
59505;DHT22;45321;53.200;5.814;2022-08-19T08:11:55;21.40;83.10
59505;DHT22;45321;53.200;5.814;2022-08-19T08:14:38;21.50;82.80
59505;DHT22;45321;53.200;5.814;2022-08-19T08:17:05;21.60;83.10
59505;DHT22;45321;53.200;5.814;2022-08-19T08:19:32;21.70;83.20
59505;DHT22;45321;53.200;5.814;2022-08-19T08:22:00;21.80;83.10
59505;DHT22;45321;53.200;5.814;2022-08-19T08:24:30;21.80;82.50
59505;DHT22;45321;53.200;5.814;2022-08-19T08:26:58;21.90;82.40
59505;DHT22;45321;53.200;5.814;2022-08-19T08:29:28;22.10;82.30
59505;DHT22;45321;53.200;5.814;2022-08-19T08:31:57;22.20;81.90
59505;DHT22;45321;53.200;5.814;2022-08-19T08:34:23;22.20;81.50
59505;DHT22;45321;53.200;5.814;2022-08-19T08:36:49;22.40;81.80
59505;DHT22;45321;53.200;5.814;2022-08-19T08:39:19;22.50;81.90
59505;DHT22;45321;53.200;5.814;2022-08-19T08:42:12;22.60;80.50
59505;DHT22;45321;53.200;5.814;2022-08-19T08:47:18;22.80;78.80
59505;DHT22;45321;53.200;5.814;2022-08-19T08:49:54;22.90;78.50
59505;DHT22;45321;53.200;5.814;2022-08-19T08:54:53;23.10;77.30
59505;DHT22;45321;53.200;5.814;2022-08-19T09:00:15;23.20;78.20
59505;DHT22;45321;53.200;5.814;2022-08-19T09:02:43;23.30;77.60
59505;DHT22;45321;53.200;5.814;2022-08-19T09:05:09;23.30;76.90
59505;DHT22;45321;53.200;5.814;2022-08-19T09:08:01;23.40;76.60
59505;DHT22;45321;53.200;5.814;2022-08-19T09:10:44;23.50;76.80
59505;DHT22;45321;53.200;5.814;2022-08-19T09:16:07;23.50;76.50
59505;DHT22;45321;53.200;5.814;2022-08-19T09:18:47;23.50;76.70
59505;DHT22;45321;53.200;5.814;2022-08-19T09:21:15;23.50;76.40
59505;DHT22;45321;53.200;5.814;2022-08-19T09:23:41;23.60;77.40
59505;DHT22;45321;53.200;5.814;2022-08-19T09:26:14;23.70;76.90
59505;DHT22;45321;53.200;5.814;2022-08-19T09:28:45;23.80;77.10
59505;DHT22;45321;53.200;5.814;2022-08-19T09:31:19;23.80;75.80
59505;DHT22;45321;53.200;5.814;2022-08-19T09:33:46;23.90;75.90
59505;DHT22;45321;53.200;5.814;2022-08-19T09:36:16;24.00;76.20
59505;DHT22;45321;53.200;5.814;2022-08-19T09:38:45;24.00;75.90
59505;DHT22;45321;53.200;5.814;2022-08-19T09:41:17;24.20;74.70
59505;DHT22;45321;53.200;5.814;2022-08-19T09:43:48;24.20;74.40
59505;DHT22;45321;53.200;5.814;2022-08-19T09:46:18;24.20;74.10
59505;DHT22;45321;53.200;5.814;2022-08-19T09:48:47;24.20;73.20
59505;DHT22;45321;53.200;5.814;2022-08-19T09:51:17;24.10;73.30
59505;DHT22;45321;53.200;5.814;2022-08-19T09:53:44;23.90;73.80
59505;DHT22;45321;53.200;5.814;2022-08-19T09:56:11;23.80;73.60
59505;DHT22;45321;53.200;5.814;2022-08-19T09:58:38;23.80;74.50
59505;DHT22;45321;53.200;5.814;2022-08-19T10:01:04;24.00;74.90
59505;DHT22;45321;53.200;5.814;2022-08-19T10:03:33;24.10;74.90
59505;DHT22;45321;53.200;5.814;2022-08-19T10:06:01;24.30;74.30
59505;DHT22;45321;53.200;5.814;2022-08-19T10:08:37;24.50;73.60
59505;DHT22;45321;53.200;5.814;2022-08-19T10:11:05;24.60;73.40
59505;DHT22;45321;53.200;5.814;2022-08-19T10:13:32;24.70;73.90
59505;DHT22;45321;53.200;5.814;2022-08-19T10:16:10;24.80;73.60
59505;DHT22;45321;53.200;5.814;2022-08-19T10:18:37;24.80;72.90
59505;DHT22;45321;53.200;5.814;2022-08-19T10:21:23;24.80;71.90
59505;DHT22;45321;53.200;5.814;2022-08-19T10:23:51;24.70;72.00
59505;DHT22;45321;53.200;5.814;2022-08-19T10:26:20;24.70;72.60
59505;DHT22;45321;53.200;5.814;2022-08-19T10:28:49;24.70;72.00
59505;DHT22;45321;53.200;5.814;2022-08-19T10:31:19;24.60;72.80
59505;DHT22;45321;53.200;5.814;2022-08-19T10:33:46;24.70;73.10
59505;DHT22;45321;53.200;5.814;2022-08-19T10:36:21;24.90;72.60
59505;DHT22;45321;53.200;5.814;2022-08-19T10:38:51;25.10;72.70
59505;DHT22;45321;53.200;5.814;2022-08-19T10:41:24;25.20;71.30
59505;DHT22;45321;53.200;5.814;2022-08-19T10:43:54;25.40;70.10
59505;DHT22;45321;53.200;5.814;2022-08-19T10:46:22;25.40;70.80
59505;DHT22;45321;53.200;5.814;2022-08-19T10:48:49;25.40;68.60
59505;DHT22;45321;53.200;5.814;2022-08-19T10:51:15;25.20;69.30
59505;DHT22;45321;53.200;5.814;2022-08-19T10:54:00;25.20;69.50
59505;DHT22;45321;53.200;5.814;2022-08-19T10:56:27;25.10;69.40
59505;DHT22;45321;53.200;5.814;2022-08-19T10:59:12;25.00;69.10
59505;DHT22;45321;53.200;5.814;2022-08-19T11:01:41;24.90;69.90
59505;DHT22;45321;53.200;5.814;2022-08-19T11:04:08;24.90;69.90
59505;DHT22;45321;53.200;5.814;2022-08-19T11:06:37;25.00;70.00
59505;DHT22;45321;53.200;5.814;2022-08-19T11:09:04;25.10;69.50
59505;DHT22;45321;53.200;5.814;2022-08-19T11:11:31;25.10;69.70
59505;DHT22;45321;53.200;5.814;2022-08-19T11:13:58;25.00;70.30
59505;DHT22;45321;53.200;5.814;2022-08-19T11:16:25;25.00;70.50
59505;DHT22;45321;53.200;5.814;2022-08-19T11:18:59;25.00;69.80
59505;DHT22;45321;53.200;5.814;2022-08-19T11:21:33;24.90;69.80
59505;DHT22;45321;53.200;5.814;2022-08-19T11:24:03;24.90;70.10
59505;DHT22;45321;53.200;5.814;2022-08-19T11:26:30;25.00;70.00
59505;DHT22;45321;53.200;5.814;2022-08-19T11:28:57;25.30;70.00
59505;DHT22;45321;53.200;5.814;2022-08-19T11:31:26;25.70;68.10
59505;DHT22;45321;53.200;5.814;2022-08-19T11:33:52;25.80;67.50
59505;DHT22;45321;53.200;5.814;2022-08-19T11:36:20;25.90;66.50
59505;DHT22;45321;53.200;5.814;2022-08-19T11:38:47;25.80;67.40
59505;DHT22;45321;53.200;5.814;2022-08-19T11:41:16;25.60;68.20
59505;DHT22;45321;53.200;5.814;2022-08-19T11:43:42;25.60;69.20
59505;DHT22;45321;53.200;5.814;2022-08-19T11:46:10;25.90;68.60
59505;DHT22;45321;53.200;5.814;2022-08-19T11:48:37;26.00;67.40
59505;DHT22;45321;53.200;5.814;2022-08-19T11:51:14;26.10;67.50
59505;DHT22;45321;53.200;5.814;2022-08-19T11:53:41;26.30;67.10
59505;DHT22;45321;53.200;5.814;2022-08-19T11:56:08;26.60;66.70
59505;DHT22;45321;53.200;5.814;2022-08-19T11:58:35;26.70;66.50
59505;DHT22;45321;53.200;5.814;2022-08-19T12:01:04;26.90;67.00
59505;DHT22;45321;53.200;5.814;2022-08-19T12:03:30;27.00;65.40
59505;DHT22;45321;53.200;5.814;2022-08-19T12:05:56;26.90;65.60
59505;DHT22;45321;53.200;5.814;2022-08-19T12:08:22;26.80;65.90
59505;DHT22;45321;53.200;5.814;2022-08-19T12:10:48;26.80;66.70
59505;DHT22;45321;53.200;5.814;2022-08-19T12:13:14;26.80;65.10
59505;DHT22;45321;53.200;5.814;2022-08-19T12:15:46;26.70;65.50
59505;DHT22;45321;53.200;5.814;2022-08-19T12:18:13;26.70;64.80
59505;DHT22;45321;53.200;5.814;2022-08-19T12:20:45;26.50;64.40
59505;DHT22;45321;53.200;5.814;2022-08-19T12:23:13;26.40;64.80
59505;DHT22;45321;53.200;5.814;2022-08-19T12:25:45;26.40;65.50
59505;DHT22;45321;53.200;5.814;2022-08-19T12:28:21;26.40;66.70
59505;DHT22;45321;53.200;5.814;2022-08-19T12:30:49;26.50;66.20
59505;DHT22;45321;53.200;5.814;2022-08-19T12:33:17;26.70;65.90
59505;DHT22;45321;53.200;5.814;2022-08-19T12:35:44;26.90;65.20
59505;DHT22;45321;53.200;5.814;2022-08-19T12:38:13;27.00;65.00
59505;DHT22;45321;53.200;5.814;2022-08-19T12:40:40;27.00;65.20
59505;DHT22;45321;53.200;5.814;2022-08-19T12:43:07;26.90;65.10
59505;DHT22;45321;53.200;5.814;2022-08-19T12:45:32;26.70;64.50
59505;DHT22;45321;53.200;5.814;2022-08-19T12:47:58;26.60;65.10
59505;DHT22;45321;53.200;5.814;2022-08-19T12:50:24;26.40;64.70
59505;DHT22;45321;53.200;5.814;2022-08-19T12:52:50;26.30;65.60
59505;DHT22;45321;53.200;5.814;2022-08-19T12:55:16;26.30;65.40
59505;DHT22;45321;53.200;5.814;2022-08-19T12:57:44;26.20;66.30
59505;DHT22;45321;53.200;5.814;2022-08-19T13:00:12;26.30;66.50
59505;DHT22;45321;53.200;5.814;2022-08-19T13:02:41;26.30;65.90
59505;DHT22;45321;53.200;5.814;2022-08-19T13:05:08;26.20;66.20
59505;DHT22;45321;53.200;5.814;2022-08-19T13:07:37;26.20;66.90
59505;DHT22;45321;53.200;5.814;2022-08-19T13:10:08;26.30;66.90
59505;DHT22;45321;53.200;5.814;2022-08-19T13:12:34;26.40;66.80
59505;DHT22;45321;53.200;5.814;2022-08-19T13:15:00;26.40;65.70
59505;DHT22;45321;53.200;5.814;2022-08-19T13:17:27;26.40;66.20
59505;DHT22;45321;53.200;5.814;2022-08-19T13:19:53;26.30;65.50
59505;DHT22;45321;53.200;5.814;2022-08-19T13:22:18;26.20;65.30
59505;DHT22;45321;53.200;5.814;2022-08-19T13:24:44;26.10;65.10
59505;DHT22;45321;53.200;5.814;2022-08-19T13:27:10;26.00;65.50
59505;DHT22;45321;53.200;5.814;2022-08-19T13:29:36;25.90;65.90
59505;DHT22;45321;53.200;5.814;2022-08-19T13:32:20;25.90;65.80
59505;DHT22;45321;53.200;5.814;2022-08-19T13:35:05;25.80;66.00
59505;DHT22;45321;53.200;5.814;2022-08-19T13:37:30;25.80;66.00
59505;DHT22;45321;53.200;5.814;2022-08-19T13:40:16;25.70;66.10
59505;DHT22;45321;53.200;5.814;2022-08-19T13:42:44;25.70;66.50
59505;DHT22;45321;53.200;5.814;2022-08-19T13:45:13;25.80;66.50
59505;DHT22;45321;53.200;5.814;2022-08-19T13:47:41;25.80;65.80
59505;DHT22;45321;53.200;5.814;2022-08-19T13:50:16;25.70;66.20
59505;DHT22;45321;53.200;5.814;2022-08-19T13:52:42;25.80;66.10
59505;DHT22;45321;53.200;5.814;2022-08-19T13:55:09;26.00;66.20
59505;DHT22;45321;53.200;5.814;2022-08-19T13:57:36;26.20;65.30
59505;DHT22;45321;53.200;5.814;2022-08-19T14:00:07;26.50;65.00
59505;DHT22;45321;53.200;5.814;2022-08-19T14:02:36;26.60;64.00
59505;DHT22;45321;53.200;5.814;2022-08-19T14:05:08;26.60;63.20
59505;DHT22;45321;53.200;5.814;2022-08-19T14:07:35;26.50;64.00
59505;DHT22;45321;53.200;5.814;2022-08-19T14:10:02;26.30;64.30
59505;DHT22;45321;53.200;5.814;2022-08-19T14:12:28;26.20;64.40
59505;DHT22;45321;53.200;5.814;2022-08-19T14:14:56;26.20;64.20
59505;DHT22;45321;53.200;5.814;2022-08-19T14:17:22;26.10;64.80
59505;DHT22;45321;53.200;5.814;2022-08-19T14:19:48;26.20;65.20
59505;DHT22;45321;53.200;5.814;2022-08-19T14:22:14;26.20;65.20
59505;DHT22;45321;53.200;5.814;2022-08-19T14:24:39;26.70;65.20
59505;DHT22;45321;53.200;5.814;2022-08-19T14:27:06;26.90;63.20
59505;DHT22;45321;53.200;5.814;2022-08-19T14:29:33;27.10;63.20
59505;DHT22;45321;53.200;5.814;2022-08-19T14:31:59;27.20;63.50
59505;DHT22;45321;53.200;5.814;2022-08-19T14:34:26;27.40;63.00
59505;DHT22;45321;53.200;5.814;2022-08-19T14:36:52;27.70;62.40
59505;DHT22;45321;53.200;5.814;2022-08-19T14:39:19;27.90;61.40
59505;DHT22;45321;53.200;5.814;2022-08-19T14:41:44;27.70;60.90
59505;DHT22;45321;53.200;5.814;2022-08-19T14:44:11;27.70;61.50
59505;DHT22;45321;53.200;5.814;2022-08-19T14:46:38;27.70;61.70
59505;DHT22;45321;53.200;5.814;2022-08-19T14:49:04;27.60;61.30
59505;DHT22;45321;53.200;5.814;2022-08-19T14:51:30;27.60;61.00
59505;DHT22;45321;53.200;5.814;2022-08-19T14:53:56;27.70;61.30
59505;DHT22;45321;53.200;5.814;2022-08-19T14:56:26;28.10;60.90
59505;DHT22;45321;53.200;5.814;2022-08-19T14:58:52;28.40;60.30
59505;DHT22;45321;53.200;5.814;2022-08-19T15:01:20;28.60;59.10
59505;DHT22;45321;53.200;5.814;2022-08-19T15:03:47;28.70;59.00
59505;DHT22;45321;53.200;5.814;2022-08-19T15:06:13;29.00;58.90
59505;DHT22;45321;53.200;5.814;2022-08-19T15:08:40;29.30;56.70
59505;DHT22;45321;53.200;5.814;2022-08-19T15:11:15;29.60;55.90
59505;DHT22;45321;53.200;5.814;2022-08-19T15:13:41;29.90;56.00
59505;DHT22;45321;53.200;5.814;2022-08-19T15:16:08;30.20;55.00
59505;DHT22;45321;53.200;5.814;2022-08-19T15:18:34;30.50;54.60
59505;DHT22;45321;53.200;5.814;2022-08-19T15:21:00;30.50;54.30
59505;DHT22;45321;53.200;5.814;2022-08-19T15:23:26;30.00;54.80
59505;DHT22;45321;53.200;5.814;2022-08-19T15:25:52;29.50;56.20
59505;DHT22;45321;53.200;5.814;2022-08-19T15:28:24;29.10;57.00
59505;DHT22;45321;53.200;5.814;2022-08-19T15:30:50;28.70;58.40
59505;DHT22;45321;53.200;5.814;2022-08-19T15:33:16;28.60;58.80
59505;DHT22;45321;53.200;5.814;2022-08-19T15:35:43;28.50;57.90
59505;DHT22;45321;53.200;5.814;2022-08-19T15:38:09;28.20;58.30
59505;DHT22;45321;53.200;5.814;2022-08-19T15:40:38;28.10;59.00
59505;DHT22;45321;53.200;5.814;2022-08-19T15:43:04;27.90;59.00
59505;DHT22;45321;53.200;5.814;2022-08-19T15:45:32;27.70;59.90
59505;DHT22;45321;53.200;5.814;2022-08-19T15:48:03;27.40;60.40
59505;DHT22;45321;53.200;5.814;2022-08-19T15:50:31;27.30;61.20